Time;durP1;ratioP1;P1;durP2;ratioP2;P2;SDS_P1;SDS_P2;PMS_P1;PMS_P2;Temp;Humidity;BMP_temperature;BMP_pressure;BME280_temperature;BME280_humidity;BME280_pressure;Samples;Min_cycle;Max_cycle;Signal;HPM_P1;HPM_P2
2023/04/06 00:01:28;;;;;;;25.35;13.27;;;;;;;6.46;44.32;101404.75;4984028;28;20057;-82
2023/04/06 00:03:54;;;;;;;22.80;13.23;;;;;;;7.05;43.57;101505.06;4983063;28;20538;-80
2023/04/06 00:06:21;;;;;;;18.48;12.35;;;;;;;7.17;44.25;101562.44;4991671;28;20061;-81
2023/04/06 00:08:55;;;;;;;27.38;13.35;;;;;;;6.79;44.36;101503.97;5003135;28;20524;-79
2023/04/06 00:11:27;;;;;;;21.90;12.47;;;;;;;6.93;44.28;101538.31;5000703;28;20518;-81
2023/04/06 00:13:54;;;;;;;18.33;11.90;;;;;;;6.88;44.46;101545.66;5006819;28;20132;-82
2023/04/06 00:16:24;;;;;;;21.45;11.95;;;;;;;6.76;44.15;101527.91;4976539;28;20058;-84
2023/04/06 00:19:07;;;;;;;26.25;11.98;;;;;;;6.90;44.32;101546.44;4991443;28;20046;-78
2023/04/06 00:21:40;;;;;;;17.40;11.70;;;;;;;6.90;44.38;101550.88;4985345;28;20101;-84
2023/04/06 00:24:12;;;;;;;;;;;;;;;6.90;44.03;101553.50;4977063;28;20298;-82
2023/04/06 00:26:53;;;;;;;14.65;11.35;;;;;;;6.87;44.64;101559.81;4988222;28;19928;-80
2023/04/06 00:29:40;;;;;;;21.48;11.80;;;;;;;6.31;44.35;101472.44;5026593;28;20044;-81
2023/04/06 00:32:17;;;;;;;18.42;11.88;;;;;;;6.91;44.11;101540.19;5002610;28;20065;-82
2023/04/06 00:34:44;;;;;;;24.08;13.27;;;;;;;6.84;44.41;101509.81;5008539;28;20069;-80
2023/04/06 00:37:21;;;;;;;20.52;13.60;;;;;;;7.16;44.63;101549.31;4998719;28;20211;-80
2023/04/06 00:39:48;;;;;;;21.75;12.80;;;;;;;7.02;45.00;101545.72;5006114;28;20099;-82
2023/04/06 00:42:25;;;;;;;24.13;12.52;;;;;;;6.85;44.64;101545.84;5007740;28;20353;-83
2023/04/06 00:44:57;;;;;;;20.27;12.73;;;;;;;6.58;44.73;101522.75;4990367;28;20054;-83
2023/04/06 00:47:25;;;;;;;21.80;13.15;;;;;;;6.68;45.78;101544.19;4992343;28;20446;-83
2023/04/06 00:49:55;;;;;;;20.27;12.93;;;;;;;6.71;45.34;101564.28;4983542;28;20476;-83
2023/04/06 00:52:24;;;;;;;17.92;12.13;;;;;;;6.67;45.76;101560.09;4970865;28;20458;-82
2023/04/06 00:54:53;;;;;;;22.40;12.20;;;;;;;6.68;45.62;101560.03;4970853;28;20431;-81
2023/04/06 00:57:20;;;;;;;20.02;12.02;;;;;;;6.41;45.70;101509.69;5001427;28;20080;-81
2023/04/06 00:59:47;;;;;;;24.65;13.05;;;;;;;6.64;45.61;101554.06;5006950;28;20054;-82
2023/04/06 01:02:15;;;;;;;20.95;10.68;;;;;;;6.63;45.25;101551.53;5002549;28;20309;-81
2023/04/06 01:04:42;;;;;;;18.02;11.68;;;;;;;6.71;45.87;101559.00;4985400;28;20042;-83
2023/04/06 01:07:12;;;;;;;19.88;11.98;;;;;;;6.74;45.40;101559.66;5004679;28;20041;-80
2023/04/06 01:09:42;;;;;;;20.75;11.98;;;;;;;6.81;45.19;101550.44;4997408;28;20054;-79
2023/04/06 01:12:09;;;;;;;25.35;12.25;;;;;;;6.63;44.96;101528.63;4989831;28;20050;-83
2023/04/06 01:14:36;;;;;;;19.33;11.90;;;;;;;6.74;45.43;101543.81;5024122;28;20060;-83
2023/04/06 01:17:07;;;;;;;21.50;11.15;;;;;;;6.63;45.12;101531.25;4997038;28;20033;-83
2023/04/06 01:19:33;;;;;;;23.23;10.75;;;;;;;6.54;44.82;101515.94;4992939;28;20050;-81
2023/04/06 01:22:15;;;;;;;17.23;10.43;;;;;;;6.62;44.65;101533.97;5001148;28;20056;-81
2023/04/06 01:24:42;;;;;;;21.23;11.75;;;;;;;6.63;45.12;101538.34;4989169;28;20053;-83
2023/04/06 01:27:09;;;;;;;15.73;9.48;;;;;;;6.62;44.90;101541.88;4986671;28;20517;-82
2023/04/06 01:29:48;;;;;;;14.63;9.70;;;;;;;6.35;45.74;101494.19;4980886;28;20077;-82
2023/04/06 01:32:21;;;;;;;18.45;10.18;;;;;;;6.46;45.41;101520.81;4984721;28;20633;-81
2023/04/06 01:34:48;;;;;;;18.80;10.45;;;;;;;5.74;45.52;101404.44;4995095;28;20807;-81
2023/04/06 01:37:31;;;;;;;15.50;9.35;;;;;;;6.10;44.97;101466.59;4994432;28;20061;-82
2023/04/06 01:40:00;;;;;;;22.77;10.27;;;;;;;5.79;44.51;101412.91;5001189;28;20205;-83
2023/04/06 01:42:36;;;;;;;15.63;9.15;;;;;;;6.60;43.92;101523.53;5014941;28;20565;-82
2023/04/06 01:45:09;;;;;;;16.23;10.68;;;;;;;6.57;44.19;101526.31;4980363;28;20133;-79
2023/04/06 01:47:38;;;;;;;17.50;10.02;;;;;;;6.29;44.75;101484.03;4995493;28;20046;-80
2023/04/06 01:50:07;;;;;;;16.25;10.05;;;;;;;6.12;44.39;101470.00;4981925;28;20042;-81
2023/04/06 01:52:34;;;;;;;16.98;9.77;;;;;;;6.44;44.46;101527.97;5000878;28;20216;-82
2023/04/06 01:55:00;;;;;;;15.52;10.30;;;;;;;6.40;44.38;101524.66;5005149;28;20096;-83
2023/04/06 01:57:29;;;;;;;17.63;10.00;;;;;;;5.66;44.46;101398.75;4986621;28;20049;-82
2023/04/06 01:59:56;;;;;;;18.67;9.75;;;;;;;6.42;43.75;101516.66;4999413;28;20045;-81
2023/04/06 02:02:32;;;;;;;16.50;9.35;;;;;;;6.04;44.07;101464.28;5003457;28;20645;-79
2023/04/06 02:04:59;;;;;;;16.58;9.30;;;;;;;6.20;43.89;101496.75;4982236;28;20683;-82
2023/04/06 02:07:28;;;;;;;18.80;9.95;;;;;;;6.29;44.97;101510.38;4981392;28;20042;-82
2023/04/06 02:09:55;;;;;;;14.98;10.10;;;;;;;6.16;44.44;101489.97;4996991;28;20046;-84
2023/04/06 02:12:23;;;;;;;14.13;9.60;;;;;;;6.01;44.81;101479.44;4973575;28;20053;-81
2023/04/06 02:14:53;;;;;;;13.25;9.10;;;;;;;6.24;44.73;101520.31;4994634;28;20300;-82
2023/04/06 02:17:23;;;;;;;15.88;9.23;;;;;;;6.24;45.31;101518.56;4992230;28;20534;-81
2023/04/06 02:20:05;;;;;;;18.52;9.55;;;;;;;6.27;45.29;101522.81;4990969;28;20056;-82
2023/04/06 02:22:35;;;;;;;15.77;9.70;;;;;;;5.37;45.76;101367.91;4990272;28;20107;-81
2023/04/06 02:25:04;;;;;;;16.63;10.15;;;;;;;6.26;45.04;101505.25;5000607;28;20057;-80
2023/04/06 02:27:34;;;;;;;16.93;11.20;;;;;;;6.28;44.58;101506.03;4996982;28;20112;-82
2023/04/06 02:30:01;;;;;;;18.25;10.50;;;;;;;5.91;45.16;101447.44;4976448;28;20702;-82
2023/04/06 02:32:31;;;;;;;15.35;9.55;;;;;;;5.96;44.86;101453.34;4972867;28;20046;-82
2023/04/06 02:35:00;;;;;;;18.25;9.48;;;;;;;6.42;44.63;101511.38;4980544;28;20057;-81
2023/04/06 02:37:27;;;;;;;19.33;10.35;;;;;;;6.41;44.76;101509.69;4985629;28;20046;-82
2023/04/06 02:39:53;;;;;;;14.65;10.18;;;;;;;6.56;43.59;101471.03;4990166;28;20041;-82
2023/04/06 02:42:20;;;;;;;17.65;10.70;;;;;;;6.66;43.65;101500.38;4984240;28;20128;-82
2023/04/06 02:44:56;;;;;;;16.73;10.52;;;;;;;6.73;43.77;101506.97;5005958;28;20051;-80
2023/04/06 02:47:23;;;;;;;15.80;9.52;;;;;;;6.72;43.30;101497.34;4996908;28;20049;-81
2023/04/06 02:49:51;;;;;;;24.77;10.55;;;;;;;6.83;43.17;101489.66;5004190;28;20072;-82
2023/04/06 02:52:24;;;;;;;14.00;9.52;;;;;;;6.71;42.87;101500.94;4999897;28;20243;-82
2023/04/06 02:54:52;;;;;;;18.58;11.07;;;;;;;6.75;42.20;101500.69;5002487;28;20080;-82
2023/04/06 02:57:19;;;;;;;16.70;10.10;;;;;;;6.37;42.26;101469.44;5005726;28;20056;-82
2023/04/06 02:59:47;;;;;;;16.90;9.65;;;;;;;6.42;43.17;101495.56;5000208;28;20290;-82
2023/04/06 03:02:14;;;;;;;13.93;10.52;;;;;;;6.40;43.78;101487.72;4993410;28;20452;-79
2023/04/06 03:04:45;;;;;;;18.08;11.25;;;;;;;5.89;44.56;101449.31;4993426;28;20046;-82
2023/04/06 03:07:12;;;;;;;18.23;11.18;;;;;;;6.18;43.79;101508.34;5002211;28;20187;-82
2023/04/06 03:09:42;;;;;;;20.05;12.60;;;;;;;6.03;44.36;101511.84;5019986;28;20251;-81
2023/04/06 03:12:13;;;;;;;14.52;10.48;;;;;;;5.82;44.30;101492.75;5002522;28;20081;-81
2023/04/06 03:14:40;;;;;;;16.23;11.07;;;;;;;5.57;44.84;101470.38;5003026;28;20181;-81
2023/04/06 03:17:19;;;;;;;22.25;11.95;;;;;;;5.81;44.90;101510.34;4980706;28;20081;-81
2023/04/06 03:19:51;;;;;;;19.38;11.75;;;;;;;5.80;45.43;101495.44;4981236;28;20046;-82
2023/04/06 03:22:23;;;;;;;24.33;13.25;;;;;;;5.90;44.99;101495.81;4988316;28;20062;-81
2023/04/06 03:24:51;;;;;;;24.05;13.43;;;;;;;5.50;45.66;101445.28;4989647;28;20317;-82
2023/04/06 03:27:18;;;;;;;22.30;13.25;;;;;;;5.91;46.31;101526.50;4995495;28;20061;-81
2023/04/06 03:29:48;;;;;;;22.95;14.23;;;;;;;5.86;46.63;101528.53;5008440;28;20404;-82
2023/04/06 03:32:15;;;;;;;27.17;14.32;;;;;;;5.48;46.89;101505.09;5008036;28;20209;-80
2023/04/06 03:34:47;;;;;;;31.10;16.85;;;;;;;5.19;47.05;101470.63;5005523;28;20053;-81
2023/04/06 03:37:19;;;;;;;34.50;16.15;;;;;;;5.51;47.87;101528.63;5004234;28;20069;-82
2023/04/06 03:39:48;;;;;;;28.52;15.40;;;;;;;5.04;47.61;101485.44;5001608;28;20192;-81
2023/04/06 03:42:30;;;;;;;28.77;16.45;;;;;;;5.32;48.15;101553.31;5008719;28;20540;-82
2023/04/06 03:45:01;;;;;;;31.10;16.30;;;;;;;5.14;48.40;101535.81;5008191;28;20057;-80
2023/04/06 03:47:31;;;;;;;26.73;15.63;;;;;;;5.25;47.95;101549.28;5002935;28;20056;-81
2023/04/06 03:49:58;;;;;;;29.15;16.80;;;;;;;5.03;48.37;101522.38;5004839;28;20397;-81
2023/04/06 03:52:34;;;;;;;31.70;15.80;;;;;;;4.83;48.68;101513.72;5008594;28;20552;-80
2023/04/06 03:55:03;;;;;;;27.42;15.48;;;;;;;4.95;48.92;101545.56;5010217;28;20446;-81
2023/04/06 03:57:34;;;;;;;25.55;16.23;;;;;;;5.28;48.26;101548.28;5002569;28;20057;-82
2023/04/06 04:00:02;;;;;;;28.45;17.10;;;;;;;5.11;49.09;101552.63;5003222;28;20137;-81
2023/04/06 04:02:28;;;;;;;26.20;15.40;;;;;;;4.92;48.49;101510.59;5005070;28;21073;-80
2023/04/06 04:05:02;;;;;;;24.23;15.40;;;;;;;5.17;49.30;101567.28;4987219;28;20323;-81
2023/04/06 04:07:30;;;;;;;23.90;15.80;;;;;;;5.10;48.98;101556.19;4990896;28;20077;-82
2023/04/06 04:10:07;;;;;;;25.15;16.88;;;;;;;5.11;49.21;101562.31;4989536;28;20496;-80
2023/04/06 04:12:36;;;;;;;23.60;17.25;;;;;;;5.22;49.31;101544.19;4990402;28;20048;-81
2023/04/06 04:15:08;;;;;;;;;;;;;;;5.19;49.92;101570.66;5005335;28;20354;-81
2023/04/06 04:17:35;;;;;;;22.33;16.08;;;;;;;4.96;49.07;101542.03;4997749;28;20028;-81
2023/04/06 04:20:02;;;;;;;28.73;16.83;;;;;;;4.78;49.43;101509.59;5008110;28;20108;-80
2023/04/06 04:22:47;;;;;;;25.13;17.55;;;;;;;4.82;50.55;101545.34;5005037;28;20327;-82
2023/04/06 04:25:14;;;;;;;26.65;16.38;;;;;;;4.82;50.71;101569.03;5000900;28;20482;-81
2023/04/06 04:27:41;;;;;;;29.67;16.10;;;;;;;4.83;50.69;101547.03;5007508;28;20057;-82
2023/04/06 04:30:09;;;;;;;25.10;15.82;;;;;;;5.03;50.04;101577.63;5006079;28;20057;-83
2023/04/06 04:32:41;;;;;;;28.77;17.23;;;;;;;4.90;50.81;101572.13;5005963;28;20130;-81
2023/04/06 04:35:13;;;;;;;18.70;14.38;;;;;;;4.27;50.03;101448.97;5016292;28;20053;-83
2023/04/06 04:37:44;;;;;;;22.38;16.33;;;;;;;4.97;50.22;101576.16;5006177;28;20056;-82
2023/04/06 04:40:22;;;;;;;22.45;15.00;;;;;;;4.87;50.65;101557.34;4997735;28;20049;-82
2023/04/06 04:42:50;;;;;;;24.27;15.02;;;;;;;4.85;51.53;101574.97;5003920;28;20506;-81
2023/04/06 04:45:18;;;;;;;24.08;14.52;;;;;;;4.83;51.55;101570.72;5005733;28;20395;-80
2023/04/06 04:47:45;;;;;;;25.52;14.88;;;;;;;4.06;51.46;101445.63;5014658;28;20045;-81
2023/04/06 04:50:13;;;;;;;21.42;14.77;;;;;;;4.84;51.54;101581.16;4994917;28;20678;-81
2023/04/06 04:52:51;;;;;;;25.15;14.93;;;;;;;4.60;51.29;101535.03;5003601;28;20107;-81
2023/04/06 04:55:22;;;;;;;21.48;15.52;;;;;;;4.86;51.12;101574.06;5023287;28;20045;-79
2023/04/06 04:58:33;;;;;;;29.75;15.32;;;;;;;4.67;50.88;101546.97;4992936;28;20132;-80
2023/04/06 05:01:02;;;;;;;23.63;14.45;;;;;;;4.86;50.97;101574.06;4913744;29;20509;-82
2023/04/06 05:03:38;;;;;;;32.15;15.02;;;;;;;4.77;51.51;101571.88;5007917;28;20057;-81
2023/04/06 05:06:05;;;;;;;28.48;15.80;;;;;;;4.73;51.79;101551.91;5008310;28;20478;-80
2023/04/06 05:08:38;;;;;;;23.13;14.02;;;;;;;4.79;51.67;101546.34;5003063;28;20758;-80
2023/04/06 05:11:15;;;;;;;27.88;15.63;;;;;;;4.82;51.09;101524.28;5008218;28;20038;-80
2023/04/06 05:13:42;;;;;;;29.83;16.73;;;;;;;5.21;51.57;101574.06;5016223;28;20050;-79
2023/04/06 05:16:12;;;;;;;26.33;16.88;;;;;;;5.15;50.54;101540.16;4990148;28;20065;-83
2023/04/06 05:18:49;;;;;;;23.88;15.23;;;;;;;4.87;50.37;101459.97;4984368;28;20058;-81
2023/04/06 05:21:16;;;;;;;31.25;15.70;;;;;;;5.38;49.83;101541.59;4981517;28;20815;-80
2023/04/06 05:23:45;;;;;;;31.70;16.05;;;;;;;5.47;49.94;101558.72;5010998;28;20159;-83
2023/04/06 05:26:12;;;;;;;30.38;15.77;;;;;;;5.56;50.16;101571.41;4994477;28;20080;-81
2023/04/06 05:28:39;;;;;;;26.08;13.52;;;;;;;5.44;49.72;101543.94;5000086;28;20194;-81
2023/04/06 05:31:16;;;;;;;22.38;14.38;;;;;;;5.38;49.37;101533.69;5007856;28;20054;-80
2023/04/06 05:33:43;;;;;;;24.67;14.88;;;;;;;5.58;49.07;101551.06;5005779;28;20050;-81
2023/04/06 05:36:12;;;;;;;24.85;15.77;;;;;;;5.19;49.18;101486.41;4991742;28;20526;-80
2023/04/06 05:38:41;;;;;;;24.50;14.10;;;;;;;5.52;49.14;101519.81;4992768;28;20069;-82
2023/04/06 05:41:26;;;;;;;19.55;13.88;;;;;;;5.07;49.01;101440.56;5013349;28;20045;-81
2023/04/06 05:44:05;;;;;;;29.90;14.13;;;;;;;5.55;48.83;101519.63;4999883;28;20081;-79
2023/04/06 05:46:36;;;;;;;33.78;13.93;;;;;;;4.33;48.58;101311.16;5001318;28;20049;-81
2023/04/06 05:49:16;;;;;;;20.02;12.88;;;;;;;5.92;48.54;101557.19;5003708;28;20146;-82
2023/04/06 05:51:44;;;;;;;18.55;12.65;;;;;;;5.89;48.31;101542.38;4991832;28;20042;-82
2023/04/06 05:54:10;;;;;;;21.83;11.50;;;;;;;5.40;47.36;101466.00;4992467;28;20623;-81
2023/04/06 05:56:37;;;;;;;22.88;13.30;;;;;;;6.14;47.53;101576.22;4993236;28;20053;-81
2023/04/06 05:59:16;;;;;;;19.73;12.48;;;;;;;6.22;47.48;101572.31;5001187;28;20053;-80
2023/04/06 06:01:46;;;;;;;19.05;12.38;;;;;;;6.36;46.50;101572.38;5010931;28;20115;-80
2023/04/06 06:04:15;;;;;;;24.52;12.27;;;;;;;6.43;45.80;101557.91;5009139;28;20057;-81
2023/04/06 06:06:42;;;;;;;24.83;12.18;;;;;;;6.52;46.05;101559.19;5005666;28;20128;-82
2023/04/06 06:09:12;;;;;;;21.02;11.65;;;;;;;6.70;45.49;101578.38;4987976;28;20046;-81
2023/04/06 06:11:40;;;;;;;18.20;11.20;;;;;;;6.40;44.96;101515.88;4998839;28;20050;-82
2023/04/06 06:14:07;;;;;;;16.95;10.55;;;;;;;6.74;43.81;101574.66;5006261;28;20049;-81
2023/04/06 06:16:37;;;;;;;14.82;10.68;;;;;;;6.76;43.09;101575.41;4990879;28;20422;-80
2023/04/06 06:19:04;;;;;;;20.77;10.98;;;;;;;6.69;43.08;101568.78;4987139;28;20049;-83
2023/04/06 06:21:37;;;;;;;24.88;11.63;;;;;;;6.85;41.87;101582.81;4999834;28;20380;-81
2023/04/06 06:24:05;;;;;;;21.83;10.63;;;;;;;6.90;41.72;101583.38;5004764;28;20419;-80
2023/04/06 06:26:31;;;;;;;16.75;10.93;;;;;;;6.97;41.57;101582.09;4992044;28;20069;-80
2023/04/06 06:29:01;;;;;;;23.17;14.00;;;;;;;6.42;43.67;101485.84;5005901;28;20087;-79
2023/04/06 06:31:28;;;;;;;28.40;15.15;;;;;;;7.09;45.09;101590.22;5004429;28;20049;-81
2023/04/06 06:33:55;;;;;;;26.95;16.08;;;;;;;6.92;45.19;101563.03;5003029;28;20500;-80
2023/04/06 06:36:22;;;;;;;25.75;16.00;;;;;;;7.12;45.47;101595.34;4985874;28;20056;-80
2023/04/06 06:38:49;;;;;;;32.30;15.73;;;;;;;7.13;45.31;101584.69;5006539;28;20041;-80
2023/04/06 06:41:17;;;;;;;29.35;18.25;;;;;;;7.08;44.82;101570.91;4989754;28;20052;-81
2023/04/06 06:43:44;;;;;;;29.20;15.57;;;;;;;7.22;44.92;101593.84;4984332;28;20319;-81
2023/04/06 06:46:11;;;;;;;25.80;15.93;;;;;;;7.05;45.27;101557.88;4990444;28;20575;-81
2023/04/06 06:48:38;;;;;;;26.65;14.82;;;;;;;6.78;44.86;101516.31;5006747;28;20301;-80
2023/04/06 06:51:05;;;;;;;31.48;14.85;;;;;;;6.81;44.11;101507.38;5004160;28;20100;-82
2023/04/06 06:53:32;;;;;;;33.85;15.40;;;;;;;7.33;43.34;101593.22;5004931;28;20045;-80
2023/04/06 06:55:59;;;;;;;24.15;14.30;;;;;;;6.79;43.66;101498.69;5000767;28;20233;-81
2023/04/06 06:58:26;;;;;;;22.98;15.02;;;;;;;7.38;42.80;101594.66;4982871;28;20358;-82
2023/04/06 07:00:57;;;;;;;23.45;14.98;;;;;;;7.44;42.65;101591.63;4988115;28;20397;-81
2023/04/06 07:03:30;;;;;;;27.20;15.63;;;;;;;7.65;42.29;101609.78;4975194;28;20116;-79
2023/04/06 07:05:57;;;;;;;20.73;14.27;;;;;;;7.56;41.83;101587.41;4984902;28;20321;-82
2023/04/06 07:08:27;;;;;;;24.05;14.07;;;;;;;7.37;41.42;101561.25;4985196;28;20084;-80
2023/04/06 07:10:56;;;;;;;30.13;15.43;;;;;;;7.32;41.85;101544.81;4983310;28;20050;-80
2023/04/06 07:13:23;;;;;;;28.98;16.25;;;;;;;7.85;41.62;101604.13;4984654;28;20052;-80
2023/04/06 07:15:55;;;;;;;29.30;15.90;;;;;;;7.84;41.84;101602.44;4991829;28;20463;-83
2023/04/06 07:18:25;;;;;;;23.08;15.05;;;;;;;7.66;41.37;101553.34;5003833;28;20042;-81
2023/04/06 07:20:54;;;;;;;27.40;16.13;;;;;;;8.04;41.67;101601.19;5004973;28;20322;-82
2023/04/06 07:23:23;;;;;;;27.80;15.32;;;;;;;7.76;40.74;101543.88;5002318;28;20162;-81
2023/04/06 07:25:53;;;;;;;19.75;14.32;;;;;;;7.93;40.63;101570.13;4984765;28;20451;-81
2023/04/06 07:28:40;;;;;;;20.02;13.98;;;;;;;8.20;41.11;101619.59;5000992;28;20408;-81
2023/04/06 07:31:11;;;;;;;25.20;15.52;;;;;;;8.19;41.14;101607.31;5007443;28;20761;-81
2023/04/06 07:33:47;;;;;;;23.13;16.13;;;;;;;8.08;41.19;101583.34;5016974;28;20050;-82
2023/04/06 07:36:18;;;;;;;30.30;15.80;;;;;;;8.21;41.83;101602.78;5001858;28;20083;-80
2023/04/06 07:38:48;;;;;;;30.90;15.90;;;;;;;8.24;41.31;101599.09;5006600;28;20092;-81
2023/04/06 07:41:15;;;;;;;26.90;15.35;;;;;;;8.25;41.38;101593.72;5008767;28;20320;-80
2023/04/06 07:43:46;;;;;;;24.40;14.73;;;;;;;8.45;41.64;101610.16;5007160;28;20491;-80
2023/04/06 07:46:16;;;;;;;29.30;16.30;;;;;;;8.27;40.26;101575.94;5004338;28;20516;-80
2023/04/06 07:48:50;;;;;;;23.42;14.32;;;;;;;8.17;40.44;101539.59;4988248;28;20046;-79
2023/04/06 07:51:17;;;;;;;28.55;14.02;;;;;;;8.40;40.50;101569.88;4986911;28;20341;-82
2023/04/06 07:53:44;;;;;;;21.65;13.73;;;;;;;8.56;40.24;101573.25;4986030;28;20339;-80
2023/04/06 07:56:15;;;;;;;21.15;12.88;;;;;;;8.68;39.39;101575.09;4995547;28;20055;-80
2023/04/06 07:58:44;;;;;;;22.45;12.05;;;;;;;8.99;38.51;101618.09;4993266;28;20050;-80
2023/04/06 08:01:11;;;;;;;16.77;11.85;;;;;;;7.93;38.15;101430.00;4984925;28;20591;-80
2023/04/06 08:03:39;;;;;;;19.65;11.43;;;;;;;8.67;37.73;101539.00;4985963;28;20065;-81
2023/04/06 08:06:06;;;;;;;16.77;11.25;;;;;;;9.18;37.07;101605.31;4987021;28;20061;-80
2023/04/06 08:08:49;;;;;;;16.85;9.50;;;;;;;9.03;35.46;101587.81;4980112;28;20057;-80
2023/04/06 08:11:27;;;;;;;19.25;9.50;;;;;;;9.16;35.24;101575.44;4980052;28;20472;-80
2023/04/06 08:13:56;;;;;;;19.55;10.13;;;;;;;8.83;34.23;101541.47;4997594;28;20338;-80
2023/04/06 08:16:26;;;;;;;15.38;9.07;;;;;;;9.33;34.21;101607.91;5004494;28;20046;-80
2023/04/06 08:19:10;;;;;;;19.00;9.65;;;;;;;8.69;34.24;101518.56;4982836;28;20069;-80
2023/04/06 08:21:39;;;;;;;16.95;10.30;;;;;;;9.06;34.67;101561.13;4987228;28;20373;-81
2023/04/06 08:24:12;;;;;;;15.48;10.45;;;;;;;9.19;34.70;101583.16;4988883;28;20503;-81
2023/04/06 08:26:41;;;;;;;16.40;10.48;;;;;;;9.29;34.54;101585.19;4996842;28;20115;-80
2023/04/06 08:29:08;;;;;;;21.27;10.13;;;;;;;9.37;33.94;101583.75;5008429;28;20286;-81
2023/04/06 08:31:41;;;;;;;13.70;10.48;;;;;;;9.48;34.00;101588.28;5004697;28;20091;-80
2023/04/06 08:34:07;;;;;;;18.15;11.38;;;;;;;9.36;34.55;101555.53;5004701;28;20045;-81
2023/04/06 08:36:50;;;;;;;18.85;11.40;;;;;;;9.30;34.54;101547.16;5002669;28;20051;-83
2023/04/06 08:39:16;;;;;;;22.67;11.07;;;;;;;9.38;34.39;101552.78;4997035;28;20797;-80
2023/04/06 08:42:16;;;;;;;14.32;10.27;;;;;;;9.60;34.32;101571.53;5004077;28;20049;-83
2023/04/06 08:44:48;;;;;;;18.27;11.35;;;;;;;9.77;34.63;101593.38;5002328;28;20063;-82
2023/04/06 08:47:15;;;;;;;20.15;12.32;;;;;;;9.48;34.66;101526.50;4999468;28;20132;-83
2023/04/06 08:49:43;;;;;;;13.70;10.27;;;;;;;9.97;34.50;101603.44;5007405;28;20053;-81
2023/04/06 08:52:25;;;;;;;20.67;10.57;;;;;;;9.80;34.04;101574.59;5004438;28;20415;-82
2023/04/06 08:55:00;;;;;;;17.60;10.05;;;;;;;10.00;33.59;101592.63;5003337;28;20061;-81
2023/04/06 08:57:31;;;;;;;13.75;9.73;;;;;;;9.84;33.96;101523.06;5005049;28;20061;-81
2023/04/06 09:00:16;;;;;;;15.52;10.18;;;;;;;10.26;33.12;101572.19;5019340;28;20065;-79
2023/04/06 09:02:54;;;;;;;15.15;10.18;;;;;;;10.37;32.80;101598.00;5006798;28;20493;-80
2023/04/06 09:05:25;;;;;;;14.88;9.23;;;;;;;10.42;32.76;101587.88;5018732;28;20103;-79
2023/04/06 09:07:55;;;;;;;12.00;8.15;;;;;;;10.45;32.13;101592.97;5004672;28;20050;-82
2023/04/06 09:10:24;;;;;;;13.75;9.20;;;;;;;10.57;32.21;101587.72;5005261;28;20273;-82
2023/04/06 09:13:06;;;;;;;12.30;8.30;;;;;;;10.36;31.63;101545.00;5000337;28;20046;-81
2023/04/06 09:15:40;;;;;;;15.85;7.78;;;;;;;10.47;30.41;101547.72;4987202;28;20500;-81
2023/04/06 09:18:37;;;;;;;11.30;6.80;;;;;;;10.67;30.16;101575.47;4984449;28;20054;-81
2023/04/06 09:21:08;;;;;;;8.73;7.17;;;;;;;10.23;30.61;101470.72;4986154;28;20413;-80
2023/04/06 09:23:35;;;;;;;12.57;9.32;;;;;;;11.03;30.61;101592.28;4986322;28;20061;-82
2023/04/06 09:26:14;;;;;;;17.55;8.25;;;;;;;10.97;30.10;101568.81;4987346;28;20256;-80
2023/04/06 09:28:51;;;;;;;12.45;9.30;;;;;;;11.17;30.77;101568.19;5003945;28;20137;-81
2023/04/06 09:31:30;;;;;;;13.93;9.95;;;;;;;11.15;30.48;101548.00;4986087;28;20050;-81
2023/04/06 09:34:07;;;;;;;20.60;9.35;;;;;;;11.63;30.78;101590.38;4986400;28;20058;-81
2023/04/06 09:36:46;;;;;;;16.40;10.32;;;;;;;11.75;30.81;101581.44;4988013;28;20060;-82
2023/04/06 09:39:12;;;;;;;15.30;9.48;;;;;;;11.94;30.82;101572.88;4981561;28;20064;-82
2023/04/06 09:41:40;;;;;;;18.30;10.00;;;;;;;11.72;30.33;101510.72;4987975;28;20377;-81
2023/04/06 09:44:16;;;;;;;15.48;8.98;;;;;;;12.03;29.46;101558.84;4985639;28;20050;-81
2023/04/06 09:46:47;;;;;;;12.95;9.05;;;;;;;12.04;29.73;101533.94;4982185;28;20056;-81
2023/04/06 09:49:39;;;;;;;17.08;9.70;;;;;;;12.26;29.64;101518.88;4979751;28;20133;-80
2023/04/06 09:52:08;;;;;;;14.15;9.73;;;;;;;12.78;29.62;101568.69;4980884;28;20133;-82
2023/04/06 09:54:41;;;;;;;15.85;10.30;;;;;;;12.99;29.30;101571.41;4982140;28;20441;-80
2023/04/06 09:57:25;;;;;;;18.70;10.93;;;;;;;13.10;29.27;101561.66;4979659;28;20062;-80
2023/04/06 10:00:16;;;;;;;18.70;11.13;;;;;;;13.32;29.21;101558.03;5015019;28;20049;-81
2023/04/06 10:03:16;;;;;;;16.55;11.15;;;;;;;13.58;28.12;101558.47;4993982;28;20074;-81
2023/04/06 10:06:09;;;;;;;17.15;11.77;;;;;;;13.67;28.58;101544.34;4998368;28;20061;-81
2023/04/06 10:08:42;;;;;;;13.18;10.30;;;;;;;13.77;28.37;101529.22;5005941;28;20111;-80
2023/04/06 10:11:11;;;;;;;12.30;10.60;;;;;;;13.26;28.23;101440.22;5016203;28;20060;-79
2023/04/06 10:13:51;;;;;;;15.95;11.75;;;;;;;13.13;28.93;101380.09;5003956;28;20108;-81
2023/04/06 10:16:22;;;;;;;18.88;12.25;;;;;;;14.21;27.93;101528.94;4980738;28;20423;-79
2023/04/06 10:18:57;;;;;;;15.35;10.82;;;;;;;14.40;28.24;101541.47;4982277;28;20054;-79
2023/04/06 10:21:39;;;;;;;14.15;10.82;;;;;;;14.49;27.99;101530.81;4966962;28;20504;-82
2023/04/06 10:24:13;;;;;;;14.30;10.73;;;;;;;14.36;28.24;101491.97;4991007;28;20684;-81
2023/04/06 10:26:43;;;;;;;18.80;11.13;;;;;;;14.86;27.96;101529.28;4992693;28;20143;-81
2023/04/06 10:29:13;;;;;;;20.92;11.68;;;;;;;14.87;27.67;101522.94;4995536;28;20132;-80
2023/04/06 10:31:49;;;;;;;18.08;11.60;;;;;;;14.80;27.84;101463.84;4990027;28;20470;-81
2023/04/06 10:34:16;;;;;;;15.32;11.57;;;;;;;15.41;27.03;101532.13;4985364;28;20439;-81
2023/04/06 10:36:43;;;;;;;17.38;12.05;;;;;;;14.74;26.66;101406.47;4990672;28;20058;-82
2023/04/06 10:39:09;;;;;;;15.40;11.15;;;;;;;15.30;26.49;101502.88;4991022;28;20056;-81
2023/04/06 10:41:42;;;;;;;15.80;11.48;;;;;;;15.46;26.55;101529.88;4988518;28;20133;-81
2023/04/06 10:44:21;;;;;;;16.15;11.48;;;;;;;15.58;26.66;101523.34;4988233;28;20053;-81
2023/04/06 10:47:15;;;;;;;16.83;10.85;;;;;;;15.73;26.50;101498.81;4982943;28;20082;-81
2023/04/06 10:49:41;;;;;;;15.82;11.68;;;;;;;15.71;25.71;101474.03;4987712;28;20052;-81
2023/04/06 10:52:09;;;;;;;16.50;11.15;;;;;;;15.78;26.27;101461.72;4997704;28;20053;-82
2023/04/06 10:54:43;;;;;;;16.48;11.23;;;;;;;16.21;26.29;101497.66;4982381;28;20046;-82
2023/04/06 10:57:10;;;;;;;19.27;12.15;;;;;;;16.46;25.59;101496.09;4992971;28;20389;-82
2023/04/06 10:59:36;;;;;;;19.05;11.70;;;;;;;16.42;26.31;101492.88;5006468;28;20072;-82
2023/04/06 11:02:03;;;;;;;18.85;12.18;;;;;;;16.36;26.33;101458.66;5001718;28;20049;-82
2023/04/06 11:04:30;;;;;;;18.38;12.65;;;;;;;16.76;25.50;101492.16;5001358;28;20438;-82
2023/04/06 11:06:57;;;;;;;19.05;12.20;;;;;;;16.75;25.98;101487.81;4993565;28;20535;-84
2023/04/06 11:09:36;;;;;;;21.30;12.50;;;;;;;16.51;25.76;101429.47;4989898;28;20048;-81
2023/04/06 11:12:03;;;;;;;21.15;11.85;;;;;;;17.10;25.28;101494.13;4998389;28;20049;-82
2023/04/06 11:14:30;;;;;;;18.77;13.77;;;;;;;17.01;24.89;101485.16;4994786;28;20392;-81
2023/04/06 11:16:57;;;;;;;20.92;13.45;;;;;;;16.83;25.35;101444.97;4991034;28;20310;-82
2023/04/06 11:19:27;;;;;;;19.70;12.18;;;;;;;16.80;25.74;101423.84;4997682;28;20049;-82
2023/04/06 11:21:54;;;;;;;21.02;13.85;;;;;;;17.03;25.76;101464.38;4989466;28;20509;-83
2023/04/06 11:24:29;;;;;;;17.77;13.63;;;;;;;17.28;25.97;101469.91;5003750;28;20057;-82
2023/04/06 11:27:04;;;;;;;20.20;12.90;;;;;;;17.58;25.22;101476.63;4996131;28;20038;-81
2023/04/06 11:29:37;;;;;;;17.73;12.82;;;;;;;17.29;24.94;101413.41;5000651;28;20125;-82
2023/04/06 11:32:07;;;;;;;27.95;14.23;;;;;;;17.67;25.15;101431.81;5000823;28;20492;-82
2023/04/06 11:34:36;;;;;;;21.73;12.88;;;;;;;17.87;24.58;101459.31;4981322;28;20144;-82
2023/04/06 11:37:11;;;;;;;23.67;14.10;;;;;;;17.60;24.83;101366.34;5007530;28;20119;-80